^^
Station Historical Data
 
Daily Summary for April 26, 2017 Units:  Both    English   Metric
« Previous Day
Next Day »
Daily Weekly Monthly Yearly Custom
  Current: High: Low: Average:
Temperature: 82.7 °F /  28.2 °C 82.7 °F /  28.2 °C 59.0 °F /  15 °C 66.5 °F /  19.2 °C
Dew Point: 26.8 °F /  -2.9 °C 33.6 °F /  0.9 °C 25.2 °F /  -3.8 °C 28.8 °F /  -1.8 °C
Humidity: 13% 31% 13% 25%
Wind Speed: 4.2mph /  6.8km/h 7.7mph /  12.4km/h - 0.8mph /  1.3km/h
Wind Gust: 5.8mph /  9.3km/h 11.5mph /  18.5km/h - -
WindNW - - WSW
Pressure: 29.76 in /  1007.7 hPa 29.77 in /  1008 hPa 29.69 in /  1005.3 hPa -
Precipitation: 0.00 in /  0 mm      
Historical Graphs
 
 
Tabular Data for April 26, 2017
Time Temperature Dew Point Pressure Wind Wind Speed Wind Gust Humidity Rainfall Rate (Hourly) solar Conditions
00:00 69.5 °F /  20.8 °C 31.1 °F /  -0.5 °C 29.69in /  1005.3hPa Calm     24% 0.00in /  0mm WeatherDisplay:10.37 W/m2 CLR
00:05 69.3 °F /  20.7 °C 30.9 °F /  -0.6 °C 29.69in /  1005.3hPa Calm     24% 0.00in /  0mm WeatherDisplay:10.37 W/m2 CLR
00:10 68.8 °F /  20.4 °C 30.5 °F /  -0.8 °C 29.69in /  1005.3hPa Calm     24% 0.00in /  0mm WeatherDisplay:10.37 W/m2 CLR
00:15 68.1 °F /  20.1 °C 30.9 °F /  -0.6 °C 29.69in /  1005.3hPa Calm     25% 0.00in /  0mm WeatherDisplay:10.37 W/m2 CLR
00:20 67.4 °F /  19.7 °C 31.3 °F /  -0.4 °C 29.69in /  1005.3hPa Calm     26% 0.00in /  0mm WeatherDisplay:10.37 W/m2 CLR
00:25 67.0 °F /  19.4 °C 31.0 °F /  -0.6 °C 29.69in /  1005.3hPa Calm     26% 0.00in /  0mm WeatherDisplay:10.37 W/m2 CLR
00:30 67.2 °F /  19.6 °C 31.1 °F /  -0.5 °C 29.69in /  1005.3hPa Calm     26% 0.00in /  0mm WeatherDisplay:10.37 W/m2 CLR
00:35 66.7 °F /  19.3 °C 31.6 °F /  -0.2 °C 29.69in /  1005.3hPa Calm     27% 0.00in /  0mm WeatherDisplay:10.37 W/m2 CLR
00:40 66.2 °F /  19 °C 32.1 °F /  0.1 °C 29.69in /  1005.3hPa Calm     28% 0.00in /  0mm WeatherDisplay:10.37 W/m2 CLR
00:45 65.7 °F /  18.7 °C 32.6 °F /  0.3 °C 29.69in /  1005.3hPa Calm     29% 0.00in /  0mm WeatherDisplay:10.37 W/m2 CLR
00:50 65.1 °F /  18.4 °C 32.9 °F /  0.5 °C 29.69in /  1005.3hPa Calm     30% 0.00in /  0mm WeatherDisplay:10.37 W/m2 CLR
00:55 64.8 °F /  18.2 °C 32.6 °F /  0.3 °C 29.69in /  1005.3hPa Calm     30% 0.00in /  0mm WeatherDisplay:10.37 W/m2 CLR
01:00 65.3 °F /  18.5 °C 30.4 °F /  -0.9 °C 29.70in /  1005.6hPa Calm     27% 0.00in /  0mm WeatherDisplay:10.37 W/m2 CLR
01:05 65.4 °F /  18.6 °C 30.5 °F /  -0.8 °C 29.70in /  1005.6hPa Calm     27% 0.00in /  0mm WeatherDisplay:10.37 W/m2 CLR
01:10 65.4 °F /  18.6 °C 30.5 °F /  -0.8 °C 29.70in /  1005.6hPa Calm     27% 0.00in /  0mm WeatherDisplay:10.37 W/m2 CLR
01:15 65.4 °F /  18.6 °C 30.5 °F /  -0.8 °C 29.70in /  1005.6hPa Calm     27% 0.00in /  0mm WeatherDisplay:10.37 W/m2 CLR
01:20 65.4 °F /  18.6 °C 30.5 °F /  -0.8 °C 29.70in /  1005.6hPa Calm     27% 0.00in /  0mm WeatherDisplay:10.37 W/m2 CLR
01:25 65.3 °F /  18.5 °C 30.4 °F /  -0.9 °C 29.70in /  1005.6hPa Calm     27% 0.00in /  0mm WeatherDisplay:10.37 W/m2 CLR
01:30 65.5 °F /  18.6 °C 29.7 °F /  -1.3 °C 29.70in /  1005.6hPa Calm     26% 0.00in /  0mm WeatherDisplay:10.37 W/m2 CLR
01:35 65.6 °F /  18.7 °C 29.8 °F /  -1.2 °C 29.70in /  1005.6hPa Calm     26% 0.00in /  0mm WeatherDisplay:10.37 W/m2 CLR
01:40 65.3 °F /  18.5 °C 29.5 °F /  -1.4 °C 29.70in /  1005.6hPa Calm     26% 0.00in /  0mm WeatherDisplay:10.37 W/m2 CLR
01:45 65.2 °F /  18.4 °C 28.5 °F /  -1.9 °C 29.70in /  1005.6hPa Calm     25% 0.00in /  0mm WeatherDisplay:10.37 W/m2 CLR
01:50 65.4 °F /  18.6 °C 27.6 °F /  -2.4 °C 29.70in /  1005.6hPa Calm     24% 0.00in /  0mm WeatherDisplay:10.37 W/m2 CLR
01:55 65.3 °F /  18.5 °C 28.5 °F /  -1.9 °C 29.70in /  1005.6hPa Calm     25% 0.00in /  0mm WeatherDisplay:10.37 W/m2 CLR
02:00 64.7 °F /  18.2 °C 28.0 °F /  -2.2 °C 29.70in /  1005.6hPa Calm     25% 0.00in /  0mm WeatherDisplay:10.37 W/m2 CLR
02:05 64.3 °F /  17.9 °C 27.7 °F /  -2.4 °C 29.70in /  1005.6hPa Calm     25% 0.00in /  0mm WeatherDisplay:10.37 W/m2 CLR
02:10 63.8 °F /  17.7 °C 28.2 °F /  -2.1 °C 29.70in /  1005.6hPa Calm     26% 0.00in /  0mm WeatherDisplay:10.37 W/m2 CLR
02:15 64.1 °F /  17.8 °C 27.5 °F /  -2.5 °C 29.69in /  1005.3hPa Calm     25% 0.00in /  0mm WeatherDisplay:10.37 W/m2 CLR
02:20 64.2 °F /  17.9 °C 26.6 °F /  -3 °C 29.69in /  1005.3hPa Calm     24% 0.00in /  0mm WeatherDisplay:10.37 W/m2 CLR
02:21 64.2 °F /  17.9 °C 26.6 °F /  -3 °C 29.69in /  1005.3hPa Calm     24% 0.00in /  0mm WeatherDisplay:10.37 W/m2 CLR
02:26 64.0 °F /  17.8 °C 26.4 °F /  -3.1 °C 29.69in /  1005.3hPa Calm     24% 0.00in /  0mm WeatherDisplay:10.37 W/m2 CLR
02:31 63.7 °F /  17.6 °C 27.2 °F /  -2.7 °C 29.70in /  1005.6hPa Calm     25% 0.00in /  0mm WeatherDisplay:10.37 W/m2 CLR
02:36 63.6 °F /  17.6 °C 27.1 °F /  -2.7 °C 29.70in /  1005.6hPa Calm     25% 0.00in /  0mm WeatherDisplay:10.37 W/m2 CLR
02:41 63.5 °F /  17.5 °C 27.0 °F /  -2.8 °C 29.70in /  1005.6hPa Calm     25% 0.00in /  0mm WeatherDisplay:10.37 W/m2 CLR
02:46 63.4 °F /  17.4 °C 26.9 °F /  -2.8 °C 29.70in /  1005.6hPa Calm     25% 0.00in /  0mm WeatherDisplay:10.37 W/m2 CLR
02:51 63.3 °F /  17.4 °C 27.8 °F /  -2.3 °C 29.70in /  1005.6hPa Calm     26% 0.00in /  0mm WeatherDisplay:10.37 W/m2 CLR
02:56 63.5 °F /  17.5 °C 27.0 °F /  -2.8 °C 29.70in /  1005.6hPa Calm     25% 0.00in /  0mm WeatherDisplay:10.37 W/m2 CLR
03:01 63.6 °F /  17.6 °C 27.1 °F /  -2.7 °C 29.70in /  1005.6hPa Calm     25% 0.00in /  0mm WeatherDisplay:10.37 W/m2 CLR
03:07 63.3 °F /  17.4 °C 26.8 °F /  -2.9 °C 29.70in /  1005.6hPa Calm     25% 0.00in /  0mm WeatherDisplay:10.37 W/m2 CLR
03:12 62.8 °F /  17.1 °C 27.4 °F /  -2.6 °C 29.70in /  1005.6hPa Calm     26% 0.00in /  0mm WeatherDisplay:10.37 W/m2 CLR
03:17 62.7 °F /  17.1 °C 27.3 °F /  -2.6 °C 29.71in /  1006hPa Calm     26% 0.00in /  0mm WeatherDisplay:10.37 W/m2 CLR
03:22 62.7 °F /  17.1 °C 27.3 °F /  -2.6 °C 29.71in /  1006hPa Calm     26% 0.00in /  0mm WeatherDisplay:10.37 W/m2 CLR
03:27 62.7 °F /  17.1 °C 27.3 °F /  -2.6 °C 29.71in /  1006hPa Calm     26% 0.00in /  0mm WeatherDisplay:10.37 W/m2 CLR
03:32 62.6 °F /  17 °C 27.2 °F /  -2.7 °C 29.71in /  1006hPa Calm     26% 0.00in /  0mm WeatherDisplay:10.37 W/m2 CLR
03:37 62.3 °F /  16.8 °C 26.9 °F /  -2.8 °C 29.71in /  1006hPa Calm     26% 0.00in /  0mm WeatherDisplay:10.37 W/m2 CLR
03:42 62.0 °F /  16.7 °C 27.6 °F /  -2.4 °C 29.72in /  1006.3hPa Calm     27% 0.00in /  0mm WeatherDisplay:10.37 W/m2 CLR
03:47 61.6 °F /  16.4 °C 27.3 °F /  -2.6 °C 29.72in /  1006.3hPa Calm     27% 0.00in /  0mm WeatherDisplay:10.37 W/m2 CLR
03:52 61.1 °F /  16.2 °C 27.7 °F /  -2.4 °C 29.72in /  1006.3hPa Calm     28% 0.00in /  0mm WeatherDisplay:10.37 W/m2 CLR
03:57 61.0 °F /  16.1 °C 27.6 °F /  -2.4 °C 29.72in /  1006.3hPa Calm     28% 0.00in /  0mm WeatherDisplay:10.37 W/m2 CLR
04:02 60.7 °F /  15.9 °C 27.4 °F /  -2.6 °C 29.72in /  1006.3hPa Calm     28% 0.00in /  0mm WeatherDisplay:10.37 W/m2 CLR
04:07 60.6 °F /  15.9 °C 27.3 °F /  -2.6 °C 29.72in /  1006.3hPa Calm     28% 0.00in /  0mm WeatherDisplay:10.37 W/m2 CLR
04:12 60.6 °F /  15.9 °C 27.3 °F /  -2.6 °C 29.73in /  1006.7hPa Calm     28% 0.00in /  0mm WeatherDisplay:10.37 W/m2 CLR
04:17 60.5 °F /  15.8 °C 27.2 °F /  -2.7 °C 29.73in /  1006.7hPa Calm     28% 0.00in /  0mm WeatherDisplay:10.37 W/m2 CLR
04:22 60.5 °F /  15.8 °C 27.2 °F /  -2.7 °C 29.73in /  1006.7hPa Calm     28% 0.00in /  0mm WeatherDisplay:10.37 W/m2 CLR
04:27 60.5 °F /  15.8 °C 27.2 °F /  -2.7 °C 29.73in /  1006.7hPa Calm     28% 0.00in /  0mm WeatherDisplay:10.37 W/m2 CLR
04:32 60.6 °F /  15.9 °C 27.3 °F /  -2.6 °C 29.73in /  1006.7hPa Calm     28% 0.00in /  0mm WeatherDisplay:10.37 W/m2 CLR
04:38 60.7 °F /  15.9 °C 27.4 °F /  -2.6 °C 29.73in /  1006.7hPa Calm     28% 0.00in /  0mm WeatherDisplay:10.37 W/m2 CLR
04:43 60.6 °F /  15.9 °C 27.3 °F /  -2.6 °C 29.73in /  1006.7hPa Calm     28% 0.00in /  0mm WeatherDisplay:10.37 W/m2 CLR
04:48 60.4 °F /  15.8 °C 27.1 °F /  -2.7 °C 29.73in /  1006.7hPa Calm     28% 0.00in /  0mm WeatherDisplay:10.37 W/m2 CLR
04:49 60.4 °F /  15.8 °C 27.1 °F /  -2.7 °C 29.73in /  1006.7hPa Calm     28% 0.00in /  0mm WeatherDisplay:10.37 W/m2 CLR
04:54 60.0 °F /  15.6 °C 26.8 °F /  -2.9 °C 29.73in /  1006.7hPa Calm     28% 0.00in /  0mm WeatherDisplay:10.37 W/m2 CLR
04:59 59.8 °F /  15.4 °C 27.4 °F /  -2.6 °C 29.73in /  1006.7hPa Calm     29% 0.00in /  0mm WeatherDisplay:10.37 W/m2 CLR
05:04 59.8 °F /  15.4 °C 27.4 °F /  -2.6 °C 29.73in /  1006.7hPa Calm     29% 0.00in /  0mm WeatherDisplay:10.37 W/m2 CLR
05:09 59.9 °F /  15.5 °C 27.5 °F /  -2.5 °C 29.73in /  1006.7hPa Calm     29% 0.00in /  0mm WeatherDisplay:10.37 W/m2 CLR
05:14 59.7 °F /  15.4 °C 27.4 °F /  -2.6 °C 29.74in /  1007hPa Calm     29% 0.00in /  0mm WeatherDisplay:10.37 W/m2 CLR
05:20 59.7 °F /  15.4 °C 27.4 °F /  -2.6 °C 29.74in /  1007hPa Calm     29% 0.00in /  0mm WeatherDisplay:10.37 W/m2 CLR
05:25 59.6 °F /  15.3 °C 27.3 °F /  -2.6 °C 29.74in /  1007hPa Calm     29% 0.00in /  0mm WeatherDisplay:10.37 W/m2 CLR
05:30 59.6 °F /  15.3 °C 27.3 °F /  -2.6 °C 29.74in /  1007hPa Calm     29% 0.00in /  0mm WeatherDisplay:10.37 W/m2 CLR
05:35 59.6 °F /  15.3 °C 27.3 °F /  -2.6 °C 29.74in /  1007hPa Calm     29% 0.00in /  0mm WeatherDisplay:10.37 W/m2 CLR
05:40 59.5 °F /  15.3 °C 27.2 °F /  -2.7 °C 29.74in /  1007hPa Calm     29% 0.00in /  0mm WeatherDisplay:10.37 W/m2 CLR
05:45 59.5 °F /  15.3 °C 27.2 °F /  -2.7 °C 29.75in /  1007.3hPa Calm     29% 0.00in /  0mm WeatherDisplay:10.37 W/m2 CLR
05:50 59.4 °F /  15.2 °C 27.1 °F /  -2.7 °C 29.75in /  1007.3hPa Calm     29% 0.00in /  0mm WeatherDisplay:10.37 W/m2 CLR
05:54 59.2 °F /  15.1 °C 27.7 °F /  -2.4 °C 29.75in /  1007.3hPa Calm     30% 0.00in /  0mm WeatherDisplay:10.37 W/m2 CLR
06:00 59.0 °F /  15 °C 27.6 °F /  -2.4 °C 29.75in /  1007.3hPa Calm     30% 0.00in /  0mm WeatherDisplay:10.37 W/m2 CLR
06:05 59.0 °F /  15 °C 27.6 °F /  -2.4 °C 29.75in /  1007.3hPa Calm     30% 0.00in /  0mm WeatherDisplay:10.37 W/m2 CLR
06:10 59.0 °F /  15 °C 27.6 °F /  -2.4 °C 29.75in /  1007.3hPa Calm     30% 0.00in /  0mm WeatherDisplay:10.37 W/m2 CLR
06:15 59.3 °F /  15.2 °C 27.8 °F /  -2.3 °C 29.76in /  1007.7hPa Calm     30% 0.00in /  0mm WeatherDisplay:10.37 W/m2 CLR
06:20 59.7 °F /  15.4 °C 29.0 °F /  -1.7 °C 29.76in /  1007.7hPa Calm     31% 0.00in /  0mm WeatherDisplay:10.37 W/m2 CLR
06:25 60.1 °F /  15.6 °C 28.6 °F /  -1.9 °C 29.76in /  1007.7hPa South 2.0mph /  3.2km/h 6.0mph /  9.7km/h 30% 0.00in /  0mm WeatherDisplay:10.37 W/m2 CLR
06:30 60.5 °F /  15.8 °C 28.9 °F /  -1.7 °C 29.76in /  1007.7hPa Calm   5.0mph /  8km/h 30% 0.00in /  0mm WeatherDisplay:10.37 W/m2 CLR
06:35 60.9 °F /  16.1 °C 29.2 °F /  -1.6 °C 29.76in /  1007.7hPa Calm     30% 0.00in /  0mm WeatherDisplay:10.37 W/m2 CLR
06:40 61.3 °F /  16.3 °C 29.6 °F /  -1.3 °C 29.76in /  1007.7hPa Calm     30% 0.00in /  0mm WeatherDisplay:10.37 W/m2 CLR
06:45 61.6 °F /  16.4 °C 30.6 °F /  -0.8 °C 29.76in /  1007.7hPa Calm     31% 0.00in /  0mm WeatherDisplay:10.37 W/m2 CLR
06:50 62.0 °F /  16.7 °C 31.0 °F /  -0.6 °C 29.76in /  1007.7hPa Calm     31% 0.00in /  0mm WeatherDisplay:10.37 W/m2 CLR
06:55 62.7 °F /  17.1 °C 31.6 °F /  -0.2 °C 29.76in /  1007.7hPa Calm     31% 0.00in /  0mm WeatherDisplay:10.37 W/m2 CLR
07:00 63.2 °F /  17.3 °C 32.0 °F /  0 °C 29.76in /  1007.7hPa Calm     31% 0.00in /  0mm WeatherDisplay:10.37 W/m2 CLR
07:05 64.0 °F /  17.8 °C 31.1 °F /  -0.5 °C 29.76in /  1007.7hPa Calm     29% 0.00in /  0mm WeatherDisplay:10.37 W/m2 CLR
07:10 64.8 °F /  18.2 °C 32.6 °F /  0.3 °C 29.76in /  1007.7hPa Calm     30% 0.00in /  0mm WeatherDisplay:10.37 W/m2 CLR
07:15 65.6 °F /  18.7 °C 33.3 °F /  0.7 °C 29.76in /  1007.7hPa Calm     30% 0.00in /  0mm WeatherDisplay:10.37 W/m2 CLR
07:20 66.3 °F /  19.1 °C 33.1 °F /  0.6 °C 29.76in /  1007.7hPa South 2.8mph /  4.5km/h 8.0mph /  12.9km/h 29% 0.00in /  0mm WeatherDisplay:10.37 W/m2 CLR
07:25 66.9 °F /  19.4 °C 33.6 °F /  0.9 °C 29.76in /  1007.7hPa South 1.4mph /  2.3km/h 4.6mph /  7.4km/h 29% 0.00in /  0mm WeatherDisplay:10.37 W/m2 CLR
07:30 67.3 °F /  19.6 °C 33.1 °F /  0.6 °C 29.76in /  1007.7hPa Calm     28% 0.00in /  0mm WeatherDisplay:10.37 W/m2 CLR
07:35 67.9 °F /  19.9 °C 33.6 °F /  0.9 °C 29.76in /  1007.7hPa South 1.2mph /  1.9km/h 5.0mph /  8km/h 28% 0.00in /  0mm WeatherDisplay:10.37 W/m2 CLR
07:40 68.6 °F /  20.3 °C 32.3 °F /  0.2 °C 29.76in /  1007.7hPa Calm   2.3mph /  3.7km/h 26% 0.00in /  0mm WeatherDisplay:10.37 W/m2 CLR
07:45 69.1 °F /  20.6 °C 32.7 °F /  0.4 °C 29.76in /  1007.7hPa South 3.1mph /  5km/h 8.1mph /  13km/h 26% 0.00in /  0mm WeatherDisplay:10.37 W/m2 CLR
07:51 69.6 °F /  20.9 °C 31.2 °F /  -0.4 °C 29.76in /  1007.7hPa South 1.3mph /  2.1km/h 5.8mph /  9.3km/h 24% 0.00in /  0mm WeatherDisplay:10.37 W/m2 CLR
07:56 70.2 °F /  21.2 °C 32.7 °F /  0.4 °C 29.76in /  1007.7hPa Calm     25% 0.00in /  0mm WeatherDisplay:10.37 W/m2 CLR
08:01 70.7 °F /  21.5 °C 32.1 °F /  0.1 °C 29.76in /  1007.7hPa SSW 4.0mph /  6.4km/h 8.1mph /  13km/h 24% 0.00in /  0mm WeatherDisplay:10.37 W/m2 CLR
08:06 71.2 °F /  21.8 °C 31.5 °F /  -0.3 °C 29.76in /  1007.7hPa Calm   1.2mph /  1.9km/h 23% 0.00in /  0mm WeatherDisplay:10.37 W/m2 CLR
08:11 71.7 °F /  22.1 °C 30.8 °F /  -0.7 °C 29.76in /  1007.7hPa Calm     22% 0.00in /  0mm WeatherDisplay:10.37 W/m2 CLR
08:16 72.1 °F /  22.3 °C 30.0 °F /  -1.1 °C 29.77in /  1008hPa SSW 2.2mph /  3.5km/h 8.0mph /  12.9km/h 21% 0.00in /  0mm WeatherDisplay:10.37 W/m2 CLR
08:21 72.6 °F /  22.6 °C 29.2 °F /  -1.6 °C 29.77in /  1008hPa SSW 1.1mph /  1.8km/h 3.5mph /  5.6km/h 20% 0.00in /  0mm WeatherDisplay:10.37 W/m2 CLR
08:26 73.1 °F /  22.8 °C 28.4 °F /  -2 °C 29.77in /  1008hPa SW 3.4mph /  5.5km/h 5.8mph /  9.3km/h 19% 0.00in /  0mm WeatherDisplay:10.37 W/m2 CLR
08:31 73.7 °F /  23.2 °C 27.5 °F /  -2.5 °C 29.76in /  1007.7hPa WSW 5.9mph /  9.5km/h 10.4mph /  16.7km/h 18% 0.00in /  0mm WeatherDisplay:10.37 W/m2 CLR
08:36 74.1 °F /  23.4 °C 27.9 °F /  -2.3 °C 29.76in /  1007.7hPa West 7.7mph /  12.4km/h 10.4mph /  16.7km/h 18% 0.00in /  0mm WeatherDisplay:10.37 W/m2 CLR
08:41 74.4 °F /  23.6 °C 28.1 °F /  -2.2 °C 29.76in /  1007.7hPa WNW 7.2mph /  11.6km/h 11.5mph /  18.5km/h 18% 0.00in /  0mm WeatherDisplay:10.37 W/m2 CLR
08:46 74.7 °F /  23.7 °C 28.3 °F /  -2.1 °C 29.76in /  1007.7hPa West 1.0mph /  1.6km/h 5.8mph /  9.3km/h 18% 0.00in /  0mm WeatherDisplay:10.37 W/m2 CLR
08:51 75.2 °F /  24 °C 28.8 °F /  -1.8 °C 29.76in /  1007.7hPa West 0.7mph /  1.1km/h 6.9mph /  11.1km/h 18% 0.00in /  0mm WeatherDisplay:10.37 W/m2 CLR
08:56 76.0 °F /  24.4 °C 28.0 °F /  -2.2 °C 29.76in /  1007.7hPa West 3.4mph /  5.5km/h 5.8mph /  9.3km/h 17% 0.00in /  0mm WeatherDisplay:10.37 W/m2 CLR
09:01 76.5 °F /  24.7 °C 28.4 °F /  -2 °C 29.76in /  1007.7hPa West 5.5mph /  8.9km/h 8.1mph /  13km/h 17% 0.00in /  0mm WeatherDisplay:10.37 W/m2 CLR
09:06 76.7 °F /  24.8 °C 28.6 °F /  -1.9 °C 29.76in /  1007.7hPa WSW 2.0mph /  3.2km/h 2.3mph /  3.7km/h 17% 0.00in /  0mm WeatherDisplay:10.37 W/m2 CLR
09:11 77.2 °F /  25.1 °C 27.5 °F /  -2.5 °C 29.76in /  1007.7hPa West 1.0mph /  1.6km/h 3.5mph /  5.6km/h 16% 0.00in /  0mm WeatherDisplay:10.37 W/m2 CLR
09:16 77.5 °F /  25.3 °C 27.7 °F /  -2.4 °C 29.76in /  1007.7hPa West 4.0mph /  6.4km/h 5.8mph /  9.3km/h 16% 0.00in /  0mm WeatherDisplay:10.37 W/m2 CLR
09:22 78.3 °F /  25.7 °C 26.8 °F /  -2.9 °C 29.76in /  1007.7hPa West 4.5mph /  7.2km/h 5.8mph /  9.3km/h 15% 0.00in /  0mm WeatherDisplay:10.37 W/m2 CLR
09:27 77.9 °F /  25.5 °C 26.5 °F /  -3.1 °C 29.76in /  1007.7hPa WNW 5.2mph /  8.4km/h 10.4mph /  16.7km/h 15% 0.00in /  0mm WeatherDisplay:10.37 W/m2 CLR
09:32 78.5 °F /  25.8 °C 28.5 °F /  -1.9 °C 29.76in /  1007.7hPa WNW 2.1mph /  3.4km/h 8.1mph /  13km/h 16% 0.00in /  0mm WeatherDisplay:10.37 W/m2 CLR
09:37 78.9 °F /  26.1 °C 27.3 °F /  -2.6 °C 29.76in /  1007.7hPa WNW 2.1mph /  3.4km/h 7.0mph /  11.3km/h 15% 0.00in /  0mm WeatherDisplay:10.37 W/m2 CLR
09:42 78.7 °F /  25.9 °C 27.1 °F /  -2.7 °C 29.76in /  1007.7hPa West 1.6mph /  2.6km/h 6.9mph /  11.1km/h 15% 0.00in /  0mm WeatherDisplay:10.37 W/m2 CLR
09:47 79.1 °F /  26.2 °C 27.5 °F /  -2.5 °C 29.76in /  1007.7hPa West 5.0mph /  8km/h 9.2mph /  14.8km/h 15% 0.00in /  0mm WeatherDisplay:10.37 W/m2 CLR
09:52 79.7 °F /  26.5 °C 27.9 °F /  -2.3 °C 29.76in /  1007.7hPa Calm     15% 0.00in /  0mm WeatherDisplay:10.37 W/m2 CLR
09:57 79.8 °F /  26.6 °C 28.0 °F /  -2.2 °C 29.76in /  1007.7hPa NW 4.1mph /  6.6km/h 5.8mph /  9.3km/h 15% 0.00in /  0mm WeatherDisplay:10.37 W/m2 CLR
10:02 80.6 °F /  27 °C 25.2 °F /  -3.8 °C 29.76in /  1007.7hPa NW 4.1mph /  6.6km/h 6.9mph /  11.1km/h 13% 0.00in /  0mm WeatherDisplay:10.37 W/m2 CLR
10:07 80.9 °F /  27.2 °C 27.2 °F /  -2.7 °C 29.76in /  1007.7hPa Calm     14% 0.00in /  0mm WeatherDisplay:10.37 W/m2 CLR
10:12 81.5 °F /  27.5 °C 27.7 °F /  -2.4 °C 29.75in /  1007.3hPa NW 4.1mph /  6.6km/h 5.8mph /  9.3km/h 14% 0.00in /  0mm WeatherDisplay:10.37 W/m2 CLR
10:17 82.1 °F /  27.8 °C 28.2 °F /  -2.1 °C 29.75in /  1007.3hPa NW 1.7mph /  2.7km/h 4.6mph /  7.4km/h 14% 0.00in /  0mm WeatherDisplay:10.37 W/m2 CLR
10:22 82.6 °F /  28.1 °C 26.7 °F /  -2.9 °C 29.75in /  1007.3hPa NW 1.8mph /  2.9km/h 4.6mph /  7.4km/h 13% 0.00in /  0mm WeatherDisplay:10.37 W/m2 CLR
10:27 82.7 °F /  28.2 °C 26.8 °F /  -2.9 °C 29.76in /  1007.7hPa NW 4.2mph /  6.8km/h 5.8mph /  9.3km/h 13% 0.00in /  0mm WeatherDisplay:10.37 W/m2 CLR
Youngtown, Arizona, USA
Compliments of Weather Underground - 2.75 mb